createdAt,value
2024-05-09T00:00:29.914Z,9.1926
2024-05-09T00:01:23.495Z,9.2245
2024-05-09T00:02:25.312Z,9.2726
2024-05-09T00:03:27.051Z,9.3369
2024-05-09T00:04:28.728Z,9.3419
2024-05-09T00:05:30.608Z,9.3108
2024-05-09T00:06:32.320Z,9.2453
2024-05-09T00:07:34.060Z,9.2233
2024-05-09T00:08:35.879Z,9.1838
2024-05-09T00:09:37.882Z,9.2016
2024-05-09T00:10:40.657Z,9.2145
2024-05-09T00:11:40.678Z,9.1866
2024-05-09T00:12:42.439Z,9.2021
2024-05-09T00:13:44.338Z,9.1930
2024-05-09T00:14:45.960Z,9.1889
2024-05-09T00:15:47.589Z,9.1680
2024-05-09T00:16:49.312Z,9.2283
2024-05-09T00:17:51.634Z,9.2640
2024-05-09T00:18:54.297Z,9.2665
2024-05-09T00:19:56.166Z,9.2771
2024-05-09T00:20:57.942Z,9.3129
2024-05-09T00:21:59.640Z,9.3068
2024-05-09T00:23:01.458Z,9.2718
2024-05-09T00:24:03.233Z,9.2763
2024-05-09T00:25:04.871Z,9.2545
2024-05-09T00:26:06.634Z,9.2496
2024-05-09T00:27:08.945Z,9.1994
2024-05-09T00:28:09.131Z,9.1850
2024-05-09T00:29:10.778Z,9.1612
2024-05-09T00:30:17.824Z,9.1310
2024-05-09T00:31:14.527Z,9.1133
2024-05-09T00:32:16.362Z,9.1421
2024-05-09T00:33:18.377Z,9.0869
2024-05-09T00:34:20.327Z,9.0456
2024-05-09T00:35:22.266Z,9.0155
2024-05-09T00:36:24.240Z,9.0646
2024-05-09T00:37:26.051Z,9.0805
2024-05-09T00:38:27.868Z,9.0380
2024-05-09T00:39:29.614Z,8.9978
2024-05-09T00:40:38.586Z,8.9762
2024-05-09T00:41:33.413Z,8.9723
2024-05-09T00:42:35.178Z,8.9754
2024-05-09T00:43:36.948Z,8.9597
2024-05-09T00:44:38.662Z,8.9728
2024-05-09T00:45:40.423Z,8.9915
2024-05-09T00:46:42.141Z,9.0601
2024-05-09T00:47:44.441Z,9.0892
2024-05-09T00:48:46.464Z,9.1676
2024-05-09T00:49:48.497Z,9.1913
2024-05-09T00:50:50.305Z,9.2034
2024-05-09T00:51:52.211Z,9.2334
2024-05-09T00:52:53.846Z,9.2673
2024-05-09T00:53:55.938Z,9.2936
2024-05-09T00:54:57.638Z,9.2960
2024-05-09T00:55:59.404Z,9.3394
2024-05-09T00:57:01.057Z,9.3723
2024-05-09T00:58:02.881Z,9.4076
2024-05-09T00:59:04.672Z,9.3981
2024-05-09T01:00:12.079Z,9.4495
2024-05-09T01:01:08.561Z,9.4926
2024-05-09T01:02:10.440Z,9.4843
2024-05-09T01:03:13.904Z,9.4952
2024-05-09T01:04:13.581Z,9.5117
2024-05-09T01:05:15.394Z,9.5654
2024-05-09T01:06:17.269Z,9.5507
2024-05-09T01:07:19.051Z,9.5517
2024-05-09T01:08:21.045Z,9.5599
2024-05-09T01:09:22.911Z,9.5708
2024-05-09T01:10:32.210Z,9.5941
2024-05-09T01:11:26.917Z,9.6336
2024-05-09T01:12:28.846Z,9.6485
2024-05-09T01:13:30.538Z,9.6613
2024-05-09T01:14:32.444Z,9.6675
2024-05-09T01:15:34.215Z,9.6893
2024-05-09T01:16:36.162Z,9.6906
2024-05-09T01:17:38.082Z,9.6837
2024-05-09T01:18:40.032Z,9.6875
2024-05-09T01:19:41.941Z,9.7023
2024-05-09T01:20:45.313Z,9.7120
2024-05-09T01:21:44.676Z,9.6977
2024-05-09T01:22:46.423Z,9.6968
2024-05-09T01:23:48.115Z,9.6860
2024-05-09T01:24:49.977Z,9.6806
2024-05-09T01:25:51.679Z,9.7030
2024-05-09T01:26:53.472Z,9.7421
2024-05-09T01:27:55.223Z,9.7459
2024-05-09T01:28:56.972Z,9.7572
2024-05-09T01:29:58.748Z,9.7507
2024-05-09T01:31:00.464Z,9.7552
2024-05-09T01:32:02.320Z,9.7626
2024-05-09T01:33:04.957Z,9.7559
2024-05-09T01:34:04.937Z,9.7405
2024-05-09T01:35:06.653Z,9.7443
2024-05-09T01:36:08.594Z,9.7465
2024-05-09T01:37:10.363Z,9.7530
2024-05-09T01:38:12.312Z,9.7644
2024-05-09T01:39:14.209Z,9.7681
2024-05-09T01:40:21.961Z,9.7693
2024-05-09T01:41:18.078Z,9.7775
2024-05-09T01:42:19.782Z,9.7867
2024-05-09T01:43:21.590Z,9.8085
2024-05-09T01:44:23.412Z,9.8118
2024-05-09T01:45:25.116Z,9.8199
2024-05-09T01:46:26.846Z,9.8284
2024-05-09T01:47:28.632Z,9.8254
2024-05-09T01:48:30.463Z,9.8342
2024-05-09T01:49:32.277Z,9.8330
2024-05-09T01:50:39.108Z,9.8505
2024-05-09T01:51:36.288Z,9.8441
2024-05-09T01:52:38.030Z,9.8557
2024-05-09T01:53:39.856Z,9.8784
2024-05-09T01:54:41.617Z,9.8958
2024-05-09T01:55:43.591Z,9.8893
2024-05-09T01:56:45.406Z,9.8960
2024-05-09T01:57:47.157Z,9.8918
2024-05-09T01:58:48.926Z,9.8943
2024-05-09T01:59:50.692Z,9.8857
2024-05-09T02:00:52.616Z,9.8833
2024-05-09T02:01:57.004Z,9.8827
2024-05-09T02:02:56.921Z,9.8845
2024-05-09T02:03:59.065Z,9.8875
2024-05-09T02:05:01.239Z,9.8982
2024-05-09T02:06:03.162Z,9.9101
2024-05-09T02:07:04.930Z,9.9140
2024-05-09T02:08:06.717Z,9.9149
2024-05-09T02:09:08.370Z,9.9152
2024-05-09T02:10:16.533Z,9.9213
2024-05-09T02:11:12.442Z,9.9268
2024-05-09T02:12:14.608Z,9.9379
2024-05-09T02:13:16.729Z,9.9497
2024-05-09T02:14:18.552Z,9.9259
2024-05-09T02:15:20.287Z,9.9247
2024-05-09T02:16:22.044Z,9.9205
2024-05-09T02:17:23.908Z,9.9317
2024-05-09T02:18:25.807Z,9.9304
2024-05-09T02:19:27.710Z,9.9393
2024-05-09T02:20:34.185Z,9.9336
2024-05-09T02:21:31.831Z,9.9311
2024-05-09T02:22:33.569Z,9.9498
2024-05-09T02:23:35.353Z,9.9533
2024-05-09T02:24:37.137Z,9.9559
2024-05-09T02:25:38.891Z,9.9694
2024-05-09T02:26:40.752Z,9.9735
2024-05-09T02:27:42.458Z,9.9707
2024-05-09T02:28:44.161Z,9.9634
2024-05-09T02:29:45.825Z,9.9400
2024-05-09T02:30:47.560Z,9.9554
2024-05-09T02:31:49.542Z,9.9538
2024-05-09T02:32:51.450Z,9.9596
2024-05-09T02:33:53.438Z,9.9474
2024-05-09T02:34:55.393Z,9.9338
2024-05-09T02:35:57.083Z,9.9245
2024-05-09T02:36:58.910Z,9.9424
2024-05-09T02:38:00.953Z,9.9393
2024-05-09T02:39:02.740Z,9.9270
2024-05-09T02:40:05.648Z,9.9285
2024-05-09T02:41:04.770Z,9.9289
2024-05-09T02:42:06.455Z,9.9245
2024-05-09T02:43:09.314Z,9.9101
2024-05-09T02:44:09.750Z,9.9088
2024-05-09T02:45:11.698Z,9.9139
2024-05-09T02:46:13.411Z,9.9233
2024-05-09T02:47:15.248Z,9.9077
2024-05-09T02:48:17.056Z,9.9048
2024-05-09T02:49:19.112Z,9.8948
2024-05-09T02:50:29.712Z,9.8913
2024-05-09T02:51:23.179Z,9.8773
2024-05-09T02:52:24.921Z,9.8704
2024-05-09T02:53:26.819Z,9.8790
2024-05-09T02:54:28.538Z,9.8598
2024-05-09T02:55:30.254Z,9.8575
2024-05-09T02:56:32.005Z,9.8526
2024-05-09T02:57:33.781Z,9.8361
2024-05-09T02:58:35.485Z,9.8426
2024-05-09T02:59:37.326Z,9.8465
2024-05-09T03:00:41.505Z,9.8306
2024-05-09T03:01:39.332Z,9.8352
2024-05-09T03:02:41.117Z,9.8388
2024-05-09T03:03:43.109Z,9.8313
2024-05-09T03:04:45.175Z,9.8193
2024-05-09T03:05:47.147Z,9.8163
2024-05-09T03:06:48.949Z,9.8344
2024-05-09T03:07:50.746Z,9.8293
2024-05-09T03:08:52.511Z,9.8274
2024-05-09T03:09:54.220Z,9.8093
2024-05-09T03:10:56.139Z,9.8193
2024-05-09T03:11:57.951Z,9.8041
2024-05-09T03:12:59.815Z,9.8038
2024-05-09T03:14:01.574Z,9.8217
2024-05-09T03:15:03.324Z,9.8243
2024-05-09T03:16:05.126Z,9.8312
2024-05-09T03:17:07.018Z,9.8229
2024-05-09T03:18:08.885Z,9.8260
2024-05-09T03:19:11.018Z,9.8192
2024-05-09T03:20:20.483Z,9.8235
2024-05-09T03:21:14.974Z,9.8293
2024-05-09T03:22:16.612Z,9.8357
2024-05-09T03:23:18.428Z,9.8330
2024-05-09T03:24:20.137Z,9.8479
2024-05-09T03:25:21.872Z,9.8533
2024-05-09T03:26:23.804Z,9.8493
2024-05-09T03:27:25.580Z,9.8545
2024-05-09T03:28:27.248Z,9.8334
2024-05-09T03:29:29.009Z,9.8267
2024-05-09T03:30:39.419Z,9.8379
2024-05-09T03:31:32.855Z,9.8245
2024-05-09T03:32:34.688Z,9.8155
2024-05-09T03:33:36.860Z,9.8124
2024-05-09T03:34:39.023Z,9.8131
2024-05-09T03:35:40.936Z,9.8067
2024-05-09T03:36:42.727Z,9.8120
2024-05-09T03:37:44.465Z,9.8311
2024-05-09T03:38:46.260Z,9.8235
2024-05-09T03:39:47.927Z,9.8204
2024-05-09T03:40:50.371Z,9.8119
2024-05-09T03:41:50.051Z,9.8070
2024-05-09T03:42:51.818Z,9.8092
2024-05-09T03:43:53.589Z,9.7990
2024-05-09T03:44:55.309Z,9.8017
2024-05-09T03:45:57.044Z,9.8211
2024-05-09T03:46:58.972Z,9.8348
2024-05-09T03:48:00.816Z,9.8316
2024-05-09T03:49:02.787Z,9.8229
2024-05-09T03:50:05.608Z,9.8306
2024-05-09T03:51:05.037Z,9.8182
2024-05-09T03:52:06.782Z,9.8329
2024-05-09T03:53:08.582Z,9.8344
2024-05-09T03:54:10.223Z,9.8223
2024-05-09T03:55:12.042Z,9.8186
2024-05-09T03:56:13.777Z,9.8125
2024-05-09T03:57:15.549Z,9.8168
2024-05-09T03:58:17.261Z,9.8172
2024-05-09T03:59:19.060Z,9.8010
2024-05-09T04:00:30.463Z,9.8119
2024-05-09T04:01:22.876Z,9.8076
2024-05-09T04:02:24.641Z,9.7982
2024-05-09T04:03:26.878Z,9.7958
2024-05-09T04:04:28.902Z,9.8006
2024-05-09T04:05:30.918Z,9.7979
2024-05-09T04:06:32.973Z,9.7995
2024-05-09T04:07:34.698Z,9.8062
2024-05-09T04:08:36.605Z,9.8166
2024-05-09T04:09:38.544Z,9.8276
2024-05-09T04:10:40.317Z,9.8437
2024-05-09T04:11:42.140Z,9.8426
2024-05-09T04:12:43.855Z,9.8530
2024-05-09T04:13:45.636Z,9.8730
2024-05-09T04:14:47.429Z,9.8978
2024-05-09T04:15:49.171Z,9.9272
2024-05-09T04:16:50.935Z,9.9404
2024-05-09T04:17:52.877Z,9.9447
2024-05-09T04:18:54.834Z,9.9472
2024-05-09T04:19:56.574Z,9.9460
2024-05-09T04:20:58.328Z,9.9454
2024-05-09T04:22:00.052Z,9.9207
2024-05-09T04:23:01.811Z,9.9283
2024-05-09T04:24:03.597Z,9.9335
2024-05-09T04:25:05.290Z,9.9350
2024-05-09T04:26:07.068Z,9.9338
2024-05-09T04:27:08.760Z,9.9498
2024-05-09T04:28:10.485Z,9.9690
2024-05-09T04:29:12.443Z,9.9766
2024-05-09T04:30:21.702Z,9.9775
2024-05-09T04:31:16.289Z,9.9843
2024-05-09T04:32:18.037Z,9.9758
2024-05-09T04:33:20.345Z,9.9781
2024-05-09T04:34:22.671Z,9.9887
2024-05-09T04:35:24.767Z,9.9934
2024-05-09T04:36:26.594Z,10.0009
2024-05-09T04:37:28.308Z,9.9819
2024-05-09T04:38:30.028Z,9.9964
2024-05-09T04:39:31.855Z,9.9983
2024-05-09T04:40:36.199Z,10.0121
2024-05-09T04:41:36.356Z,10.0097
2024-05-09T04:42:38.126Z,10.0231
2024-05-09T04:43:39.810Z,10.0210
2024-05-09T04:44:41.657Z,10.0102
2024-05-09T04:45:43.364Z,10.0175
2024-05-09T04:46:45.177Z,10.0449
2024-05-09T04:47:47.067Z,10.0837
2024-05-09T04:48:49.101Z,10.0849
2024-05-09T04:49:51.035Z,10.0784
2024-05-09T04:50:52.840Z,10.0886
2024-05-09T04:51:54.603Z,10.1030
2024-05-09T04:52:56.387Z,10.1004
2024-05-09T04:53:58.106Z,10.0914
2024-05-09T04:54:59.899Z,10.0935
2024-05-09T04:56:01.672Z,10.0913
2024-05-09T04:57:03.406Z,10.0934
2024-05-09T04:58:05.082Z,10.1232
2024-05-09T04:59:06.972Z,10.1104
2024-05-09T05:00:14.611Z,10.1191
2024-05-09T05:01:10.849Z,10.1129
2024-05-09T05:02:12.821Z,10.1388
2024-05-09T05:03:16.029Z,10.1266
2024-05-09T05:04:15.855Z,10.1481
2024-05-09T05:05:17.902Z,10.1587
2024-05-09T05:06:19.824Z,10.1538
2024-05-09T05:07:21.574Z,10.1601
2024-05-09T05:08:23.417Z,10.1650
2024-05-09T05:09:25.128Z,10.1391
2024-05-09T05:10:33.592Z,10.1549
2024-05-09T05:11:29.145Z,10.1562
2024-05-09T05:12:31.163Z,10.1644
2024-05-09T05:13:33.143Z,10.2054
2024-05-09T05:14:34.954Z,10.2020
2024-05-09T05:15:36.771Z,10.2078
2024-05-09T05:16:38.514Z,10.2196
2024-05-09T05:17:40.555Z,10.2008
2024-05-09T05:18:42.475Z,10.2568
2024-05-09T05:19:44.543Z,10.2677
2024-05-09T05:20:46.531Z,10.2886
2024-05-09T05:21:48.395Z,10.3029
2024-05-09T05:22:50.246Z,10.3604
2024-05-09T05:23:52.049Z,10.3751
2024-05-09T05:24:53.841Z,10.3616
2024-05-09T05:25:55.991Z,10.3579
2024-05-09T05:26:57.937Z,10.3773
2024-05-09T05:27:59.688Z,10.3872
2024-05-09T05:29:01.528Z,10.3768
2024-05-09T05:30:03.576Z,10.3940
2024-05-09T05:31:04.764Z,10.3662
2024-05-09T05:32:06.652Z,10.3672
2024-05-09T05:33:08.585Z,10.3956
2024-05-09T05:34:10.485Z,10.3689
2024-05-09T05:35:12.340Z,10.3573
2024-05-09T05:36:14.099Z,10.3596
2024-05-09T05:37:15.912Z,10.3782
2024-05-09T05:38:17.968Z,10.3633
2024-05-09T05:39:19.894Z,10.4009
2024-05-09T05:40:28.354Z,10.4009
2024-05-09T05:41:23.850Z,10.3932
2024-05-09T05:42:25.603Z,10.4011
2024-05-09T05:43:27.468Z,10.4064
2024-05-09T05:44:29.299Z,10.4468
2024-05-09T05:45:31.118Z,10.4904
2024-05-09T05:46:32.879Z,10.5089
2024-05-09T05:47:34.971Z,10.5536
2024-05-09T05:48:37.145Z,10.5566
2024-05-09T05:49:39.096Z,10.5686
2024-05-09T05:50:41.072Z,10.5283
2024-05-09T05:51:42.840Z,10.5352
2024-05-09T05:52:44.645Z,10.5322
2024-05-09T05:53:46.575Z,10.5209
2024-05-09T05:54:48.363Z,10.5126
2024-05-09T05:55:50.206Z,10.4832
2024-05-09T05:56:52.056Z,10.4939
2024-05-09T05:57:53.853Z,10.4871
2024-05-09T05:58:55.660Z,10.5226
2024-05-09T05:59:57.429Z,10.5181
2024-05-09T06:00:59.230Z,10.5041
2024-05-09T06:02:01.193Z,10.4775
2024-05-09T06:03:03.143Z,10.4899
2024-05-09T06:04:05.076Z,10.4787
2024-05-09T06:05:06.872Z,10.5166
2024-05-09T06:06:08.631Z,10.5307
2024-05-09T06:07:10.417Z,10.5703
2024-05-09T06:08:12.392Z,10.6119
2024-05-09T06:09:14.326Z,10.6577
2024-05-09T06:10:21.466Z,10.6930
2024-05-09T06:11:18.321Z,10.7633
2024-05-09T06:12:20.165Z,10.7333
2024-05-09T06:13:21.995Z,10.7618
2024-05-09T06:14:23.852Z,10.8116
2024-05-09T06:15:25.861Z,10.8283
2024-05-09T06:16:27.614Z,10.8536
2024-05-09T06:17:29.493Z,10.8179
2024-05-09T06:18:31.502Z,10.8969
2024-05-09T06:19:33.702Z,10.9966
2024-05-09T06:20:37.903Z,10.9621
2024-05-09T06:21:37.823Z,10.9965
2024-05-09T06:22:39.603Z,11.0435
2024-05-09T06:23:41.363Z,11.1159
2024-05-09T06:24:43.178Z,11.1564
2024-05-09T06:25:45.099Z,11.3185
2024-05-09T06:26:46.868Z,11.3901
2024-05-09T06:27:48.669Z,11.3637
2024-05-09T06:28:50.523Z,11.5036
2024-05-09T06:29:52.286Z,11.4892
2024-05-09T06:30:54.058Z,11.4858
2024-05-09T06:31:59.523Z,11.5224
2024-05-09T06:32:56.367Z,11.6792
2024-05-09T06:33:58.382Z,11.9502
2024-05-09T06:35:00.296Z,11.9857
2024-05-09T06:36:02.050Z,11.9001
2024-05-09T06:37:03.816Z,12.0129
2024-05-09T06:38:05.696Z,12.0901
2024-05-09T06:39:07.517Z,12.1796
2024-05-09T06:40:10.081Z,12.1864
2024-05-09T06:41:09.317Z,12.3025
2024-05-09T06:42:11.077Z,12.0390
2024-05-09T06:43:12.970Z,12.0360
2024-05-09T06:44:14.793Z,12.1239
2024-05-09T06:45:16.587Z,12.1808
2024-05-09T06:46:18.386Z,12.1415
2024-05-09T06:47:20.358Z,12.1528
2024-05-09T06:48:22.944Z,12.0763
2024-05-09T06:49:22.475Z,12.3362
2024-05-09T06:50:28.146Z,12.6307
2024-05-09T06:51:26.480Z,12.6198
2024-05-09T06:52:28.307Z,12.6369
2024-05-09T06:53:30.105Z,12.5500
2024-05-09T06:54:31.890Z,12.4146
2024-05-09T06:55:33.742Z,12.2509
2024-05-09T06:56:35.575Z,12.1892
2024-05-09T06:57:39.179Z,12.1226
2024-05-09T06:58:37.698Z,12.0652
2024-05-09T06:59:39.484Z,12.1053
2024-05-09T07:00:42.216Z,11.9949
2024-05-09T07:01:41.524Z,11.9121
2024-05-09T07:02:43.365Z,11.9741
2024-05-09T07:03:45.238Z,11.9522
2024-05-09T07:04:47.199Z,11.9033
2024-05-09T07:05:49.865Z,11.9264
2024-05-09T07:06:49.127Z,11.8674
2024-05-09T07:07:50.935Z,11.9256
2024-05-09T07:08:52.863Z,11.7445
2024-05-09T07:09:54.666Z,11.8203
2024-05-09T07:10:56.506Z,11.7930
2024-05-09T07:11:58.370Z,11.7430
2024-05-09T07:13:00.180Z,11.7235
2024-05-09T07:14:02.001Z,11.6883
2024-05-09T07:15:03.814Z,11.6576
2024-05-09T07:16:05.591Z,11.6402
2024-05-09T07:17:07.521Z,11.6140
2024-05-09T07:18:09.524Z,11.5908
2024-05-09T07:19:11.612Z,11.6073
2024-05-09T07:20:23.027Z,11.5593
2024-05-09T07:21:15.776Z,11.6391
2024-05-09T07:22:17.653Z,11.6513
2024-05-09T07:23:19.655Z,11.7775
2024-05-09T07:24:21.725Z,11.7720
2024-05-09T07:25:23.521Z,11.8324
2024-05-09T07:26:25.385Z,11.9751
2024-05-09T07:27:27.207Z,12.0496
2024-05-09T07:28:28.968Z,12.1040
2024-05-09T07:29:30.847Z,12.1418
2024-05-09T07:30:34.399Z,12.2974
2024-05-09T07:31:34.233Z,12.4020
2024-05-09T07:32:36.141Z,12.5569
2024-05-09T07:33:37.957Z,12.4647
2024-05-09T07:34:39.841Z,12.3241
2024-05-09T07:35:41.669Z,12.3173
2024-05-09T07:36:43.393Z,12.2180
2024-05-09T07:37:45.218Z,12.2233
2024-05-09T07:38:46.997Z,12.1028
2024-05-09T07:39:48.795Z,12.0284
2024-05-09T07:40:50.637Z,11.9338
2024-05-09T07:41:52.522Z,12.0131
2024-05-09T07:42:54.290Z,12.0377
2024-05-09T07:43:56.089Z,11.9681
2024-05-09T07:45:14.551Z,12.0644
2024-05-09T07:46:28.567Z,12.1118
2024-05-09T07:53:29.268Z,12.1697
2024-05-09T07:53:37.744Z,12.3190
2024-05-09T07:54:17.031Z,12.3265
2024-05-09T07:55:19.220Z,12.3362
2024-05-09T07:56:22.831Z,12.3754
2024-05-09T07:57:23.109Z,12.3528
2024-05-09T07:58:24.898Z,12.5074
2024-05-09T07:59:26.656Z,12.4590
2024-05-09T08:00:31.516Z,12.4756
2024-05-09T08:01:28.882Z,12.5892
2024-05-09T08:02:30.841Z,12.7309
2024-05-09T08:03:32.976Z,12.7732
2024-05-09T08:04:35.015Z,12.7014
2024-05-09T08:05:37.095Z,12.7774
2024-05-09T08:06:39.097Z,12.8292
2024-05-09T08:07:40.952Z,12.9365
2024-05-09T08:08:42.799Z,13.1778
2024-05-09T08:09:44.665Z,13.0449
2024-05-09T08:10:46.602Z,12.8847
2024-05-09T08:11:48.490Z,12.9549
2024-05-09T08:12:50.487Z,13.0071
2024-05-09T08:13:52.246Z,13.2059
2024-05-09T08:14:54.086Z,12.9427
2024-05-09T08:15:55.945Z,12.7516
2024-05-09T08:16:57.763Z,12.6950
2024-05-09T08:17:59.783Z,12.7124
2024-05-09T08:19:01.731Z,12.8265
2024-05-09T08:20:05.432Z,13.0154
2024-05-09T08:21:04.678Z,13.0326
2024-05-09T08:22:06.794Z,12.8295
2024-05-09T08:23:08.754Z,13.1054
2024-05-09T08:24:10.723Z,13.1212
2024-05-09T08:25:14.161Z,13.0383
2024-05-09T08:26:13.586Z,12.8281
2024-05-09T08:27:15.411Z,12.8392
2024-05-09T08:28:17.388Z,12.8776
2024-05-09T08:29:19.264Z,12.7484
2024-05-09T08:30:25.482Z,12.6103
2024-05-09T08:31:23.554Z,12.5804
2024-05-09T08:32:25.402Z,12.5291
2024-05-09T08:33:27.396Z,12.4198
2024-05-09T08:34:29.480Z,12.4378
2024-05-09T08:35:31.484Z,12.4865
2024-05-09T08:36:33.554Z,12.4901
2024-05-09T08:37:38.783Z,12.4486
2024-05-09T08:38:37.443Z,12.4969
2024-05-09T08:39:39.267Z,12.5691
2024-05-09T08:40:41.259Z,12.7250
2024-05-09T08:41:43.181Z,12.8181
2024-05-09T08:42:45.040Z,13.0729
2024-05-09T08:43:46.910Z,13.0249
2024-05-09T08:44:48.829Z,12.9204
2024-05-09T08:45:50.737Z,13.1202
2024-05-09T08:46:52.533Z,13.1537
2024-05-09T08:47:54.438Z,13.4092
2024-05-09T08:48:56.351Z,13.4868
2024-05-09T08:49:58.280Z,13.3341
2024-05-09T08:51:00.161Z,13.4631
2024-05-09T08:52:02.059Z,13.3841
2024-05-09T08:53:03.888Z,13.6609
2024-05-09T08:54:05.696Z,13.3895
2024-05-09T08:55:07.617Z,13.2467
2024-05-09T08:56:09.440Z,13.1304
2024-05-09T08:57:11.229Z,13.0556
2024-05-09T08:58:13.094Z,13.1726
2024-05-09T08:59:15.114Z,13.1397
2024-05-09T09:00:25.603Z,13.1592
2024-05-09T09:01:19.327Z,13.3842
2024-05-09T09:02:21.492Z,13.5281
2024-05-09T09:03:23.528Z,13.6927
2024-05-09T09:04:25.557Z,13.6534
2024-05-09T09:05:27.792Z,13.6869
2024-05-09T09:06:29.682Z,13.7800
2024-05-09T09:07:31.635Z,13.4713
2024-05-09T09:08:33.548Z,13.0943
2024-05-09T09:09:35.360Z,12.9686
2024-05-09T09:10:37.251Z,12.7954
2024-05-09T09:11:38.998Z,12.8394
2024-05-09T09:12:40.788Z,12.8286
2024-05-09T09:13:42.635Z,12.8726
2024-05-09T09:14:44.476Z,12.9416
2024-05-09T09:15:46.387Z,12.9330
2024-05-09T09:16:48.165Z,13.0306
2024-05-09T09:17:50.067Z,13.1655
2024-05-09T09:18:52.477Z,13.1666
2024-05-09T09:19:54.822Z,13.1744
2024-05-09T09:20:56.802Z,13.2402
2024-05-09T09:21:58.558Z,13.0753
2024-05-09T09:23:00.613Z,13.0992
2024-05-09T09:24:02.456Z,13.0731
2024-05-09T09:25:04.394Z,13.0428
2024-05-09T09:26:06.288Z,13.1759
2024-05-09T09:27:08.051Z,13.1141
2024-05-09T09:28:10.129Z,13.3138
2024-05-09T09:29:12.004Z,13.4133
2024-05-09T09:30:27.680Z,13.7380
2024-05-09T09:31:16.122Z,13.9167
2024-05-09T09:32:18.110Z,13.7658
2024-05-09T09:33:19.994Z,14.1434
2024-05-09T09:34:22.040Z,14.0308
2024-05-09T09:35:23.852Z,14.1246
2024-05-09T09:36:25.809Z,14.3800
2024-05-09T09:37:27.608Z,14.2580
2024-05-09T09:38:29.651Z,14.2728
2024-05-09T09:39:31.520Z,14.1523
2024-05-09T09:40:35.902Z,14.1156
2024-05-09T09:41:35.590Z,14.1714
2024-05-09T09:42:37.439Z,14.2462
2024-05-09T09:43:39.404Z,14.1560
2024-05-09T09:44:42.373Z,14.3444
2024-05-09T09:45:41.326Z,14.1980
2024-05-09T09:46:43.147Z,14.2559
2024-05-09T09:47:45.211Z,14.2768
2024-05-09T09:48:47.332Z,14.2631
2024-05-09T09:49:49.235Z,14.2775
2024-05-09T09:50:51.190Z,14.4294
2024-05-09T09:51:53.137Z,14.4748
2024-05-09T09:52:54.972Z,14.4567
2024-05-09T09:53:56.766Z,14.2964
2024-05-09T09:54:56.918Z,14.4939
2024-05-09T09:55:58.652Z,15.0319
2024-05-09T09:57:00.452Z,15.0524
2024-05-09T09:58:02.461Z,15.2113
2024-05-09T09:59:04.281Z,15.1445
2024-05-09T10:00:09.571Z,14.9933
2024-05-09T10:01:08.829Z,15.1517
2024-05-09T10:02:10.994Z,15.0323
2024-05-09T10:03:13.314Z,15.2997
2024-05-09T10:04:15.309Z,15.4190
2024-05-09T10:05:17.222Z,15.4561
2024-05-09T10:06:19.118Z,14.9915
2024-05-09T10:07:21.187Z,15.2420
2024-05-09T10:08:23.119Z,15.6013
2024-05-09T10:09:25.036Z,16.0631
2024-05-09T10:10:31.728Z,15.2711
2024-05-09T10:11:29.534Z,15.2014
2024-05-09T10:12:31.554Z,15.1626
2024-05-09T10:13:33.450Z,15.0782
2024-05-09T10:14:35.396Z,15.2821
2024-05-09T10:15:37.429Z,15.1646
2024-05-09T10:16:39.234Z,15.3137
2024-05-09T10:17:41.296Z,15.4366
2024-05-09T10:18:43.570Z,14.9137
2024-05-09T10:19:45.798Z,15.1397
2024-05-09T10:20:47.675Z,15.0728
2024-05-09T10:21:49.737Z,15.1754
2024-05-09T10:22:51.740Z,15.1225
2024-05-09T10:23:53.806Z,15.1929
2024-05-09T10:24:55.740Z,15.4253
2024-05-09T10:25:57.584Z,15.5767
2024-05-09T10:26:59.438Z,15.6415
2024-05-09T10:28:01.480Z,15.8306
2024-05-09T10:29:03.584Z,16.2839
2024-05-09T10:30:11.504Z,16.1570
2024-05-09T10:31:07.964Z,16.3961
2024-05-09T10:32:09.958Z,16.1110
2024-05-09T10:33:12.180Z,15.9193
2024-05-09T10:34:14.289Z,15.7603
2024-05-09T10:35:16.284Z,15.6671
2024-05-09T10:36:18.173Z,15.4312
2024-05-09T10:37:20.280Z,15.1813
2024-05-09T10:38:22.124Z,15.1658
2024-05-09T10:39:24.053Z,15.0721
2024-05-09T10:40:31.096Z,14.8421
2024-05-09T10:41:28.396Z,15.3462
2024-05-09T10:42:30.308Z,15.2015
2024-05-09T10:43:32.420Z,15.2382
2024-05-09T10:44:34.424Z,14.9309
2024-05-09T10:45:36.467Z,14.7450
2024-05-09T10:46:38.298Z,14.7346
2024-05-09T10:47:40.324Z,14.7103
2024-05-09T10:48:42.562Z,14.7090
2024-05-09T10:49:44.564Z,14.8515
2024-05-09T10:50:46.399Z,15.0474
2024-05-09T10:51:48.380Z,15.1186
2024-05-09T10:52:50.463Z,15.0302
2024-05-09T10:53:52.298Z,15.0731
2024-05-09T10:54:54.482Z,15.1240
2024-05-09T10:55:56.402Z,15.4019
2024-05-09T10:56:58.199Z,15.6682
2024-05-09T10:58:00.333Z,15.7548
2024-05-09T10:59:02.296Z,16.4835
2024-05-09T11:00:06.307Z,16.4683
2024-05-09T11:01:06.662Z,16.1774
2024-05-09T11:02:06.752Z,16.0884
2024-05-09T11:03:08.797Z,16.2524
2024-05-09T11:04:10.775Z,16.4332
2024-05-09T11:05:12.941Z,16.1481
2024-05-09T11:06:14.905Z,16.4293
2024-05-09T11:07:17.076Z,16.6932
2024-05-09T11:08:18.923Z,17.0674
2024-05-09T11:09:20.867Z,16.8080
2024-05-09T11:10:55.334Z,16.0668
2024-05-09T11:11:57.365Z,16.6002
2024-05-09T11:12:59.445Z,16.2792
2024-05-09T11:14:01.295Z,16.7589
2024-05-09T11:15:03.240Z,16.4509
2024-05-09T11:16:05.361Z,15.8757
2024-05-09T11:17:07.430Z,15.7440
2024-05-09T11:18:09.319Z,15.8528
2024-05-09T11:19:11.276Z,16.1111
2024-05-09T11:20:19.660Z,16.3091
2024-05-09T11:21:15.712Z,16.5405
2024-05-09T11:22:17.769Z,16.5051
2024-05-09T11:23:19.717Z,16.3849
2024-05-09T11:24:21.525Z,16.4180
2024-05-09T11:25:23.489Z,16.2339
2024-05-09T11:26:25.605Z,16.5865
2024-05-09T11:27:27.465Z,16.5445
2024-05-09T11:28:29.273Z,16.6124
2024-05-09T11:29:31.103Z,16.3763
2024-05-09T11:30:32.917Z,16.2260
2024-05-09T11:31:35.019Z,16.0599
2024-05-09T11:32:37.066Z,16.2530
2024-05-09T11:33:39.403Z,15.9648
2024-05-09T11:34:41.547Z,16.2655
2024-05-09T11:35:43.543Z,16.3805
2024-05-09T11:36:45.589Z,16.4549
2024-05-09T11:37:47.414Z,16.5209
2024-05-09T11:38:49.519Z,16.3140
2024-05-09T11:39:51.553Z,16.0072
2024-05-09T11:40:53.428Z,15.8623
2024-05-09T11:41:55.409Z,16.2618
2024-05-09T11:42:57.347Z,16.5783
2024-05-09T11:43:59.197Z,16.8596
2024-05-09T11:45:01.313Z,16.9845
2024-05-09T11:46:03.783Z,16.9272
2024-05-09T11:47:03.573Z,16.3143
2024-05-09T11:48:05.707Z,16.5381
2024-05-09T11:49:07.885Z,16.6692
2024-05-09T11:50:15.999Z,16.4234
2024-05-09T11:51:11.904Z,16.2688
2024-05-09T11:52:13.991Z,16.1389
2024-05-09T11:53:16.054Z,15.8237
2024-05-09T11:54:17.860Z,16.0312
2024-05-09T11:55:19.903Z,15.8643
2024-05-09T11:56:22.010Z,15.5322
2024-05-09T11:57:23.957Z,15.5878
2024-05-09T11:58:25.796Z,15.4191
2024-05-09T11:59:27.618Z,15.8234
2024-05-09T12:00:36.513Z,15.8357
2024-05-09T12:01:32.385Z,16.0708
2024-05-09T12:02:34.414Z,16.2891
2024-05-09T12:03:36.628Z,16.3267
2024-05-09T12:04:38.785Z,16.3080
2024-05-09T12:05:41.065Z,15.9913
2024-05-09T12:06:43.222Z,15.9403
2024-05-09T12:07:45.160Z,15.8386
2024-05-09T12:08:46.956Z,16.0436
2024-05-09T12:09:48.929Z,16.4648
2024-05-09T12:10:50.885Z,16.9238
2024-05-09T12:11:53.131Z,17.1515
2024-05-09T12:12:55.278Z,17.2159
2024-05-09T12:13:57.329Z,17.0336
2024-05-09T12:14:59.291Z,16.3833
2024-05-09T12:16:01.260Z,16.3510
2024-05-09T12:17:03.427Z,16.4653
2024-05-09T12:18:05.505Z,16.6631
2024-05-09T12:19:07.588Z,16.6965
2024-05-09T12:20:17.425Z,16.7203
2024-05-09T12:21:11.776Z,16.7304
2024-05-09T12:22:13.719Z,16.9027
2024-05-09T12:23:15.644Z,16.9677
2024-05-09T12:24:18.531Z,16.7574
2024-05-09T12:25:18.113Z,17.1848
2024-05-09T12:26:20.028Z,17.0291
2024-05-09T12:27:22.167Z,16.9316
2024-05-09T12:28:24.168Z,16.9817
2024-05-09T12:29:26.199Z,17.3065
2024-05-09T12:30:35.771Z,17.4746
2024-05-09T12:31:30.577Z,17.3510
2024-05-09T12:32:32.657Z,17.3406
2024-05-09T12:33:34.729Z,17.2003
2024-05-09T12:34:36.694Z,17.0179
2024-05-09T12:35:38.785Z,17.1728
2024-05-09T12:36:40.917Z,16.9225
2024-05-09T12:37:42.876Z,17.1365
2024-05-09T12:38:44.672Z,17.4617
2024-05-09T12:39:46.583Z,17.5955
2024-05-09T12:40:48.484Z,17.3623
2024-05-09T12:41:50.268Z,17.6605
2024-05-09T12:42:52.416Z,17.4136